Time;durP1;ratioP1;P1;durP2;ratioP2;P2;SDS_P1;SDS_P2;PMS_P1;PMS_P2;Temp;Humidity;BMP_temperature;BMP_pressure;BME280_temperature;BME280_humidity;BME280_pressure;Samples;Min_cycle;Max_cycle;Signal;HPM_P1;HPM_P2
2020/12/17 00:01:07;;;;;;;;;;;;;;;4.72;73.40;98927.56;1759637;81;24876;-85
2020/12/17 00:03:53;;;;;;;;;;;;;;;4.68;73.41;98922.95;1724734;81;22094;-85
2020/12/17 00:06:42;;;;;;;;;;;;;;;4.79;73.44;98927.28;1756559;81;26130;-85
2020/12/17 00:09:28;;;;;;;;;;;;;;;4.74;73.45;98924.47;1750259;81;24866;-85
2020/12/17 00:12:15;;;;;;;;;;;;;;;4.56;73.50;98920.82;1733539;81;20372;-86
2020/12/17 00:15:02;;;;;;;;;;;;;;;4.42;73.47;98922.62;1727688;81;24442;-85
2020/12/17 00:17:49;;;;;;;;;;;;;;;4.30;73.47;98920.51;1758621;81;23101;-85
2020/12/17 00:20:37;;;;;;;;;;;;;;;4.21;73.47;98924.70;1758117;81;26206;-86
2020/12/17 00:23:23;;;;;;;;;;;;;;;4.14;73.46;98918.08;1758566;80;24138;-85
2020/12/17 00:26:09;;;;;;;;;;;;;;;4.09;73.45;98920.00;1730074;81;20317;-86
2020/12/17 00:28:56;;;;;;;;;;;;;;;3.93;73.47;98916.27;1732381;81;24972;-86
2020/12/17 00:31:47;;;;;;;;;;;;;;;3.74;73.45;98915.60;1759946;80;22853;-86
2020/12/17 00:34:34;;;;;;;;;;;;;;;3.64;73.43;98918.11;1759802;81;26361;-87
2020/12/17 00:37:23;;;;;;;;;;;;;;;3.66;73.45;98921.48;1731574;81;24907;-86
2020/12/17 00:40:09;;;;;;;;;;;;;;;3.68;73.46;98923.58;1763556;80;20379;-86
2020/12/17 00:42:56;;;;;;;;;;;;;;;3.72;73.49;98923.86;1757171;81;24918;-86
2020/12/17 00:45:42;;;;;;;;;;;;;;;3.87;73.54;98917.77;1761523;81;22310;-87
2020/12/17 00:48:29;;;;;;;;;;;;;;;4.08;73.61;98923.48;1753427;81;26098;-86
2020/12/17 00:51:15;;;;;;;;;;;;;;;4.19;73.66;98922.20;1726889;81;24723;-87
2020/12/17 00:54:02;;;;;;;;;;;;;;;4.13;73.75;98919.83;1751314;81;20176;-85
2020/12/17 00:56:50;;;;;;;;;;;;;;;4.07;73.78;98920.48;1758066;81;24887;-86
2020/12/17 00:59:38;;;;;;;;;;;;;;;4.12;73.80;98925.90;1781551;80;23147;-86
2020/12/17 01:02:24;;;;;;;;;;;;;;;4.27;73.82;98921.05;1775772;80;26975;-86
2020/12/17 01:05:11;;;;;;;;;;;;;;;4.36;73.84;98920.28;1737563;81;25022;-85
2020/12/17 01:07:57;;;;;;;;;;;;;;;4.48;73.86;98918.95;1774145;80;20267;-85
2020/12/17 01:10:46;;;;;;;;;;;;;;;4.49;73.86;98916.31;1776846;79;25990;-85
2020/12/17 01:13:32;;;;;;;;;;;;;;;4.54;73.89;98913.55;1776922;79;22283;-85
2020/12/17 01:16:19;;;;;;;;;;;;;;;4.56;73.88;98912.60;1789212;79;26189;-85
2020/12/17 01:19:05;;;;;;;;;;;;;;;4.54;73.88;98916.98;1769419;80;24627;-85
2020/12/17 01:21:52;;;;;;;;;;;;;;;4.49;73.86;98913.72;1749866;81;20599;-85
2020/12/17 01:24:39;;;;;;;;;;;;;;;4.43;73.83;98920.43;1719039;81;24918;-85
2020/12/17 01:27:26;;;;;;;;;;;;;;;4.35;73.81;98916.45;1740917;80;22820;-86
2020/12/17 01:30:13;;;;;;;;;;;;;;;4.22;73.76;98914.75;1732806;81;26130;-86
2020/12/17 01:33:00;;;;;;;;;;;;;;;4.15;73.72;98921.05;1773536;80;24697;-86
2020/12/17 01:35:47;;;;;;;;;;;;;;;3.99;73.67;98912.98;1767042;80;20448;-86
2020/12/17 01:38:33;;;;;;;;;;;;;;;3.93;73.63;98914.97;1775762;80;24975;-86
2020/12/17 01:41:20;;;;;;;;;;;;;;;3.88;73.62;98912.96;1765703;80;22195;-86
2020/12/17 01:44:06;;;;;;;;;;;;;;;3.83;73.61;98912.28;1735971;81;26110;-86
2020/12/17 01:46:53;;;;;;;;;;;;;;;3.76;73.59;98916.38;1744240;81;24728;-86
2020/12/17 01:49:40;;;;;;;;;;;;;;;3.73;73.58;98920.83;1741625;80;20282;-86
2020/12/17 01:52:26;;;;;;;;;;;;;;;3.68;73.57;98916.26;1767184;80;25209;-86
2020/12/17 01:55:17;;;;;;;;;;;;;;;3.66;73.58;98918.89;1780683;80;21466;-87
2020/12/17 01:58:03;;;;;;;;;;;;;;;3.74;73.55;98913.46;1777744;80;26176;-85
2020/12/17 02:00:50;;;;;;;;;;;;;;;3.81;73.58;98912.80;1764711;80;24809;-85
2020/12/17 02:03:37;;;;;;;;;;;;;;;3.84;73.60;98915.27;1753827;80;20529;-85
2020/12/17 02:06:24;;;;;;;;;;;;;;;3.87;73.62;98913.89;1756719;81;25831;-86
2020/12/17 02:09:11;;;;;;;;;;;;;;;3.85;73.66;98913.08;1745978;80;21950;-86
2020/12/17 02:11:57;;;;;;;;;;;;;;;3.92;73.69;98910.23;1771881;80;26603;-86
2020/12/17 02:14:44;;;;;;;;;;;;;;;3.99;73.70;98916.02;1753095;80;23916;-86
2020/12/17 02:17:31;;;;;;;;;;;;;;;4.05;73.70;98913.21;1743326;81;20350;-86
2020/12/17 02:20:18;;;;;;;;;;;;;;;4.07;73.70;98908.39;1772096;80;24171;-86
2020/12/17 02:23:08;;;;;;;;;;;;;;;4.03;73.71;98915.03;1783332;80;22151;-86
2020/12/17 02:25:55;;;;;;;;;;;;;;;3.93;73.70;98898.14;1778289;80;26184;-86
2020/12/17 02:28:42;;;;;;;;;;;;;;;3.94;73.70;98916.63;1767518;80;24773;-86
2020/12/17 02:31:29;;;;;;;;;;;;;;;3.93;73.67;98916.27;1741540;81;20329;-86
2020/12/17 02:34:17;;;;;;;;;;;;;;;3.92;73.67;98914.13;1773818;80;25827;-86
2020/12/17 02:37:03;;;;;;;;;;;;;;;3.89;73.66;98916.80;1764540;80;22989;-86
2020/12/17 02:39:49;;;;;;;;;;;;;;;3.90;73.65;98917.65;1745103;80;25918;-86
2020/12/17 02:42:36;;;;;;;;;;;;;;;3.92;73.64;98915.86;1772140;80;24665;-86
2020/12/17 02:45:22;;;;;;;;;;;;;;;3.94;73.65;98915.34;1767386;80;20481;-86
2020/12/17 02:48:10;;;;;;;;;;;;;;;3.94;73.64;98913.59;1736211;81;24878;-86
2020/12/17 02:50:56;;;;;;;;;;;;;;;3.96;73.62;98917.44;1777862;80;22167;-86
2020/12/17 02:53:43;;;;;;;;;;;;;;;3.97;73.63;98912.66;1733211;82;25625;-86
2020/12/17 02:56:29;;;;;;;;;;;;;;;4.01;73.63;98916.38;1776080;80;25619;-85
2020/12/17 02:59:15;;;;;;;;;;;;;;;4.01;73.64;98912.48;1778063;80;20670;-86
2020/12/17 03:02:02;;;;;;;;;;;;;;;3.93;73.66;98910.61;1776039;80;24914;-85
2020/12/17 03:04:48;;;;;;;;;;;;;;;3.79;73.67;98909.81;1754682;81;22270;-86
2020/12/17 03:07:35;;;;;;;;;;;;;;;3.86;73.65;98909.61;1751232;81;26456;-86
2020/12/17 03:10:21;;;;;;;;;;;;;;;3.89;73.63;98905.15;1777411;80;25559;-85
2020/12/17 03:13:08;;;;;;;;;;;;;;;3.92;73.62;98907.65;1773602;80;20264;-86
2020/12/17 03:15:54;;;;;;;;;;;;;;;3.95;73.60;98901.50;1749007;80;24850;-86
2020/12/17 03:18:45;;;;;;;;;;;;;;;3.81;73.62;98896.83;1756143;81;22193;-86
2020/12/17 03:21:34;;;;;;;;;;;;;;;3.57;73.61;98893.34;1755288;81;26140;-86
2020/12/17 03:24:21;;;;;;;;;;;;;;;3.39;73.60;98900.42;1752912;81;25435;-85
2020/12/17 03:27:08;;;;;;;;;;;;;;;3.24;73.57;98906.95;1777064;80;20264;-85
2020/12/17 03:29:54;;;;;;;;;;;;;;;3.12;73.53;98907.34;1774713;80;25022;-86
2020/12/17 03:32:41;;;;;;;;;;;;;;;2.99;73.51;98905.22;1767561;80;22197;-86
2020/12/17 03:35:28;;;;;;;;;;;;;;;2.92;73.48;98907.14;1746509;81;26156;-85
2020/12/17 03:38:15;;;;;;;;;;;;;;;3.10;73.46;98914.33;1772352;80;24685;-85
2020/12/17 03:41:01;;;;;;;;;;;;;;;3.17;73.46;98913.66;1773555;80;20271;-85
2020/12/17 03:43:48;;;;;;;;;;;;;;;3.24;73.51;98915.16;1777540;80;24972;-85
2020/12/17 03:46:35;;;;;;;;;;;;;;;3.32;73.51;98912.73;1736190;81;22499;-85
2020/12/17 03:49:26;;;;;;;;;;;;;;;3.39;73.54;98913.35;1773891;80;26305;-86
2020/12/17 03:52:13;;;;;;;;;;;;;;;3.46;73.56;98910.97;1772766;80;24788;-86
2020/12/17 03:54:59;;;;;;;;;;;;;;;3.54;73.57;98908.98;1772284;80;20321;-86
2020/12/17 03:57:46;;;;;;;;;;;;;;;3.38;73.61;98899.20;1746010;81;24887;-86
2020/12/17 04:00:36;;;;;;;;;;;;;;;3.36;73.58;98899.23;1776603;80;22152;-86
2020/12/17 04:03:23;;;;;;;;;;;;;;;3.36;73.59;98897.95;1776445;80;26958;-86
2020/12/17 04:06:09;;;;;;;;;;;;;;;3.36;73.55;98900.09;1744263;80;25318;-85
2020/12/17 04:08:55;;;;;;;;;;;;;;;3.36;73.55;98901.83;1771989;79;20394;-85
2020/12/17 04:11:42;;;;;;;;;;;;;;;3.32;73.52;98904.13;1720921;81;24913;-86
2020/12/17 04:14:29;;;;;;;;;;;;;;;3.20;73.52;98906.66;1743767;81;23138;-86
2020/12/17 04:17:17;;;;;;;;;;;;;;;3.01;73.52;98905.55;1760087;81;26110;-85
2020/12/17 04:20:04;;;;;;;;;;;;;;;2.83;73.49;98913.91;1733011;80;24639;-86
2020/12/17 04:22:50;;;;;;;;;;;;;;;2.67;73.46;98913.98;1766283;80;20274;-86
2020/12/17 04:25:39;;;;;;;;;;;;;;;2.52;73.42;98908.80;1773250;80;25708;-86
2020/12/17 04:28:26;;;;;;;;;;;;;;;2.50;73.41;98911.91;1773073;80;22117;-87
2020/12/17 04:31:13;;;;;;;;;;;;;;;2.52;73.42;98911.39;1737806;81;26260;-85
2020/12/17 04:34:00;;;;;;;;;;;;;;;2.49;73.42;98914.08;1775980;79;24347;-85
2020/12/17 04:36:46;;;;;;;;;;;;;;;2.53;73.44;98911.80;1770430;80;20295;-87
2020/12/17 04:39:36;;;;;;;;;;;;;;;2.59;73.45;98902.58;1754761;81;25831;-86
2020/12/17 04:42:22;;;;;;;;;;;;;;;2.64;73.50;98900.69;1756813;81;22131;-85
2020/12/17 04:45:10;;;;;;;;;;;;;;;2.68;73.52;98904.02;1758912;81;26308;-86
2020/12/17 04:47:57;;;;;;;;;;;;;;;2.71;73.54;98903.50;1756079;79;25433;-86
2020/12/17 04:50:44;;;;;;;;;;;;;;;2.76;73.57;98910.66;1740269;81;20175;-85
2020/12/17 04:53:31;;;;;;;;;;;;;;;2.79;73.59;98909.70;1733355;82;25118;-86
2020/12/17 04:56:18;;;;;;;;;;;;;;;2.83;73.62;98916.05;1729270;82;23135;-86
2020/12/17 04:59:06;;;;;;;;;;;;;;;2.88;73.64;98922.36;1735160;81;25967;-86
2020/12/17 05:01:52;;;;;;;;;;;;;;;2.84;73.68;98922.88;1755349;80;24712;-86
2020/12/17 05:04:43;;;;;;;;;;;;;;;2.80;73.70;98926.46;1773010;80;20605;-86
2020/12/17 05:07:29;;;;;;;;;;;;;;;2.80;73.71;98927.75;1781163;79;24665;-86
2020/12/17 05:10:15;;;;;;;;;;;;;;;2.81;73.73;98920.84;1768231;80;23590;-86
2020/12/17 05:13:02;;;;;;;;;;;;;;;2.85;73.76;98931.04;1767777;80;26184;-86
2020/12/17 05:15:48;;;;;;;;;;;;;;;2.92;73.77;98931.70;1753518;80;24879;-85
2020/12/17 05:18:36;;;;;;;;;;;;;;;3.02;73.80;98938.72;1753703;80;20335;-86
2020/12/17 05:21:23;;;;;;;;;;;;;;;2.95;73.85;98930.30;1752173;80;24939;-86
2020/12/17 05:24:09;;;;;;;;;;;;;;;2.95;73.87;98928.56;1749764;80;22124;-85
2020/12/17 05:26:56;;;;;;;;;;;;;;;2.93;73.88;98934.69;1751277;81;26376;-84
2020/12/17 05:29:42;;;;;;;;;;;;;;;2.95;73.91;98932.44;1752045;80;24839;-86
2020/12/17 05:32:29;;;;;;;;;;;;;;;2.89;73.94;98934.40;1775448;79;20687;-86
2020/12/17 05:35:17;;;;;;;;;;;;;;;2.95;73.94;98935.47;1778948;80;25740;-86
2020/12/17 05:38:03;;;;;;;;;;;;;;;2.97;73.98;98931.11;1774354;80;22212;-86
2020/12/17 05:40:50;;;;;;;;;;;;;;;2.91;74.03;98928.72;1772767;80;26186;-86
2020/12/17 05:43:37;;;;;;;;;;;;;;;2.90;74.04;98938.65;1774324;80;24616;-86
2020/12/17 05:46:23;;;;;;;;;;;;;;;2.89;74.07;98927.94;1778947;80;20450;-86
2020/12/17 05:49:11;;;;;;;;;;;;;;;2.98;74.08;98930.22;1749871;80;24685;-86
2020/12/17 05:51:57;;;;;;;;;;;;;;;2.94;74.11;98934.66;1737302;82;22249;-86
2020/12/17 05:54:45;;;;;;;;;;;;;;;2.98;74.13;98929.38;1704488;84;26207;-86
2020/12/17 05:57:31;;;;;;;;;;;;;;;3.02;74.15;98930.52;1739249;82;24839;-86
2020/12/17 06:00:18;;;;;;;;;;;;;;;3.03;74.16;98933.95;1708701;83;20513;-86
2020/12/17 06:03:04;;;;;;;;;;;;;;;3.03;74.19;98938.67;1685155;84;24927;-86
2020/12/17 06:05:51;;;;;;;;;;;;;;;2.95;74.22;98938.05;1699825;83;22200;-86
2020/12/17 06:08:39;;;;;;;;;;;;;;;2.92;74.23;98941.59;1702070;83;26191;-86
2020/12/17 06:11:26;;;;;;;;;;;;;;;3.02;74.23;98937.42;1700150;83;24622;-86
2020/12/17 06:14:13;;;;;;;;;;;;;;;3.03;74.26;98942.55;1732496;82;20324;-85
2020/12/17 06:17:00;;;;;;;;;;;;;;;3.07;74.26;98940.70;1727892;82;25065;-86
2020/12/17 06:19:46;;;;;;;;;;;;;;;3.14;74.28;98943.06;1681455;84;22300;-86
2020/12/17 06:22:22;;;;;;;;;;;;;;;3.18;74.28;98939.92;1736470;82;27132;-86
2020/12/17 06:25:10;;;;;;;;;;;;;;;3.17;74.29;98942.10;1704438;82;24632;-85
2020/12/17 06:27:57;;;;;;;;;;;;;;;3.15;74.32;98942.62;1723505;82;20526;-86
2020/12/17 06:30:45;;;;;;;;;;;;;;;3.20;74.32;98944.61;1731756;82;25066;-86
2020/12/17 06:33:36;;;;;;;;;;;;;;;3.21;74.33;98945.02;1728204;82;22195;-86
2020/12/17 06:36:22;;;;;;;;;;;;;;;3.23;74.33;98953.10;1733174;82;26193;-87
2020/12/17 06:39:09;;;;;;;;;;;;;;;3.25;74.34;98958.23;1719219;83;24444;-86
2020/12/17 06:41:58;;;;;;;;;;;;;;;3.28;74.34;98960.27;1686789;84;20267;-86
2020/12/17 06:44:44;;;;;;;;;;;;;;;3.25;74.33;98964.70;1699702;83;24988;-86
2020/12/17 06:47:31;;;;;;;;;;;;;;;3.26;74.34;98971.13;1697609;83;22241;-86
2020/12/17 06:50:18;;;;;;;;;;;;;;;3.34;74.34;98972.16;1756144;80;26126;-86
2020/12/17 06:53:05;;;;;;;;;;;;;;;3.36;74.33;98970.38;1701663;82;23497;-86
2020/12/17 06:55:51;;;;;;;;;;;;;;;3.47;74.35;98981.23;1731724;82;20278;-86
2020/12/17 06:58:37;;;;;;;;;;;;;;;3.47;74.37;98981.67;1725901;82;24912;-86
2020/12/17 07:01:25;;;;;;;;;;;;;;;3.47;74.37;98983.81;1709383;82;22306;-86
2020/12/17 07:04:15;;;;;;;;;;;;;;;3.50;74.37;98985.44;1735138;82;27067;-86
2020/12/17 07:07:02;;;;;;;;;;;;;;;3.55;74.37;98993.45;1768709;79;24718;-86
2020/12/17 07:09:49;;;;;;;;;;;;;;;3.54;74.37;98991.78;1769677;79;20267;-86
2020/12/17 07:12:40;;;;;;;;;;;;;;;3.45;74.34;98993.35;1773655;80;24980;-86
2020/12/17 07:15:26;;;;;;;;;;;;;;;3.41;74.34;98997.39;1719466;81;23216;-86
2020/12/17 07:18:13;;;;;;;;;;;;;;;3.44;74.29;98998.60;1778499;80;26226;-86
2020/12/17 07:20:59;;;;;;;;;;;;;;;3.44;74.31;98994.24;1717628;81;24207;-86
2020/12/17 07:23:46;;;;;;;;;;;;;;;3.45;74.28;98992.50;1777576;80;20546;-86
2020/12/17 07:26:33;;;;;;;;;;;;;;;3.47;74.29;99000.63;1750990;81;24855;-86
2020/12/17 07:29:20;;;;;;;;;;;;;;;3.50;74.26;98995.34;1741851;81;22056;-86
2020/12/17 07:32:06;;;;;;;;;;;;;;;3.48;74.27;98995.86;1724826;81;27127;-86
2020/12/17 07:34:52;;;;;;;;;;;;;;;3.56;74.26;98993.85;1769584;80;24626;-85
2020/12/17 07:37:39;;;;;;;;;;;;;;;3.62;74.28;98994.95;1770239;80;20516;-86
2020/12/17 07:40:26;;;;;;;;;;;;;;;3.63;74.28;98997.09;1732074;81;24892;-85
2020/12/17 07:43:01;;;;;;;;;;;;;;;3.62;74.30;98991.06;1768411;80;23762;-86
2020/12/17 07:45:48;;;;;;;;;;;;;;;3.60;74.29;98999.80;1779893;79;25927;-86
2020/12/17 07:48:35;;;;;;;;;;;;;;;3.66;74.29;98993.94;1773135;80;24864;-87
2020/12/17 07:51:25;;;;;;;;;;;;;;;3.70;74.28;98995.56;1716886;82;20513;-87
2020/12/17 07:54:14;;;;;;;;;;;;;;;3.74;74.29;98998.88;1720496;82;24931;-87
2020/12/17 07:57:01;;;;;;;;;;;;;;;3.76;74.31;98994.50;1766101;80;22613;-87
2020/12/17 07:59:48;;;;;;;;;;;;;;;3.76;74.30;98993.21;1750363;81;25966;-86
2020/12/17 08:02:35;;;;;;;;;;;;;;;3.88;74.28;98990.63;1736926;81;24723;-85
2020/12/17 08:05:24;;;;;;;;;;;;;;;3.96;74.29;98992.08;1748316;82;20531;-85
2020/12/17 08:08:11;;;;;;;;;;;;;;;3.94;74.29;98989.13;1722709;82;24113;-85
2020/12/17 08:11:00;;;;;;;;;;;;;;;3.99;74.28;98988.52;1742765;80;22212;-86
2020/12/17 08:13:47;;;;;;;;;;;;;;;4.02;74.30;98996.20;1745454;81;26120;-86
2020/12/17 08:16:35;;;;;;;;;;;;;;;3.95;74.30;98991.67;1732173;81;24644;-86
2020/12/17 08:19:23;;;;;;;;;;;;;;;3.97;74.27;98996.36;1746113;82;20464;-86
2020/12/17 08:22:09;;;;;;;;;;;;;;;4.04;74.26;98993.09;1709870;82;24458;-85
2020/12/17 08:24:59;;;;;;;;;;;;;;;4.08;74.25;98995.55;1745085;82;22130;-86
2020/12/17 08:27:51;;;;;;;;;;;;;;;4.07;74.27;98995.59;1721359;82;26891;-86
2020/12/17 08:30:38;;;;;;;;;;;;;;;3.99;74.26;98991.11;1747147;82;24463;-85
2020/12/17 08:33:24;;;;;;;;;;;;;;;3.94;74.25;99000.34;1739478;82;20203;-86
2020/12/17 08:36:11;;;;;;;;;;;;;;;4.02;74.23;99002.67;1689387;82;25680;-85
2020/12/17 08:38:57;;;;;;;;;;;;;;;4.13;74.21;99001.86;1725347;82;22107;-86
2020/12/17 08:41:47;;;;;;;;;;;;;;;4.16;74.21;99006.47;1749271;80;26063;-86
2020/12/17 08:44:34;;;;;;;;;;;;;;;4.23;74.21;99009.70;1747082;82;24766;-86
2020/12/17 08:47:21;;;;;;;;;;;;;;;4.36;74.21;99011.42;1720802;82;20638;-86
2020/12/17 08:50:09;;;;;;;;;;;;;;;4.42;74.21;99015.91;1749113;80;24963;-85
2020/12/17 08:52:55;;;;;;;;;;;;;;;4.46;74.18;99014.92;1728897;81;23137;-86
2020/12/17 08:55:42;;;;;;;;;;;;;;;4.31;74.18;99018.03;1745097;82;26204;-86
2020/12/17 08:58:32;;;;;;;;;;;;;;;4.26;74.13;99019.09;1745928;82;24636;-85
2020/12/17 09:01:22;;;;;;;;;;;;;;;4.36;74.10;99021.33;1752327;81;20270;-85
2020/12/17 09:04:14;;;;;;;;;;;;;;;4.35;74.05;99024.82;1712897;83;24895;-85
2020/12/17 09:07:05;;;;;;;;;;;;;;;4.39;74.01;99025.09;1721754;82;22173;-86
2020/12/17 09:09:52;;;;;;;;;;;;;;;4.37;73.99;99023.00;1734616;82;27166;-85
2020/12/17 09:12:42;;;;;;;;;;;;;;;4.45;73.94;99022.73;1737414;82;25386;-85
2020/12/17 09:15:31;;;;;;;;;;;;;;;4.51;73.92;99018.63;1756342;81;20539;-86
2020/12/17 09:18:18;;;;;;;;;;;;;;;4.45;73.90;99019.70;1755403;81;24909;-86
2020/12/17 09:21:06;;;;;;;;;;;;;;;4.28;73.86;99018.59;1726006;82;22300;-86
2020/12/17 09:23:55;;;;;;;;;;;;;;;4.29;73.82;99017.27;1758553;80;26202;-86
2020/12/17 09:26:44;;;;;;;;;;;;;;;4.23;73.77;99019.21;1730764;81;24580;-86
2020/12/17 09:29:31;;;;;;;;;;;;;;;4.27;73.73;99016.45;1712203;82;20347;-86
2020/12/17 09:32:18;;;;;;;;;;;;;;;4.35;73.70;99019.64;1754799;80;25040;-85
2020/12/17 09:35:05;;;;;;;;;;;;;;;4.46;73.65;99021.39;1739051;82;22093;-86
2020/12/17 09:37:51;;;;;;;;;;;;;;;4.52;73.64;99025.07;1757269;80;26175;-86
2020/12/17 09:40:40;;;;;;;;;;;;;;;4.49;73.63;99016.54;1757211;81;24799;-86
2020/12/17 09:43:26;;;;;;;;;;;;;;;4.47;73.62;99015.29;1749583;81;20270;-86
2020/12/17 09:46:13;;;;;;;;;;;;;;;4.52;73.58;99022.92;1738738;81;25014;-86
2020/12/17 09:49:01;;;;;;;;;;;;;;;4.55;73.55;99023.64;1744950;81;22237;-86
2020/12/17 09:51:48;;;;;;;;;;;;;;;4.48;73.50;99019.58;1723033;82;26305;-86
2020/12/17 09:54:35;;;;;;;;;;;;;;;4.48;73.46;99020.88;1715569;83;25396;-86
2020/12/17 09:57:21;;;;;;;;;;;;;;;4.45;73.39;99011.08;1727888;83;20366;-85
2020/12/17 10:00:08;;;;;;;;;;;;;;;4.39;73.35;99014.73;1729333;83;24883;-86
2020/12/17 10:02:54;;;;;;;;;;;;;;;4.45;73.32;99009.33;1709676;83;22425;-85
2020/12/17 10:05:46;;;;;;;;;;;;;;;4.51;73.26;99009.56;1701028;83;27078;-86
2020/12/17 10:08:43;;;;;;;;;;;;;;;4.53;73.24;99011.63;1714618;82;24779;-86
2020/12/17 10:11:30;;;;;;;;;;;;;;;4.48;73.25;99015.69;1706082;82;20352;-86
2020/12/17 10:14:17;;;;;;;;;;;;;;;4.48;73.20;99009.20;1726239;83;24919;-86
2020/12/17 10:17:04;;;;;;;;;;;;;;;4.53;73.17;99015.52;1712058;83;22144;-85
2020/12/17 10:19:51;;;;;;;;;;;;;;;4.62;73.13;99018.64;1710206;82;26139;-85
2020/12/17 10:22:40;;;;;;;;;;;;;;;4.60;73.10;99015.70;1723538;83;24645;-87
2020/12/17 10:25:26;;;;;;;;;;;;;;;4.55;73.05;99014.58;1729047;81;21107;-85
2020/12/17 10:28:14;;;;;;;;;;;;;;;4.47;73.04;99019.17;1721679;83;25113;-85
2020/12/17 10:31:00;;;;;;;;;;;;;;;4.39;72.95;99022.50;1717839;83;22271;-85
2020/12/17 10:33:47;;;;;;;;;;;;;;;4.29;72.89;99023.73;1714597;82;26418;-86
2020/12/17 10:36:34;;;;;;;;;;;;;;;4.23;72.83;99025.69;1720365;83;24808;-86
2020/12/17 10:39:22;;;;;;;;;;;;;;;4.18;72.76;99023.27;1717033;83;20547;-86
2020/12/17 10:42:08;;;;;;;;;;;;;;;4.12;72.72;99024.77;1713520;83;24977;-86
2020/12/17 10:44:55;;;;;;;;;;;;;;;4.07;72.68;99025.37;1704349;83;21966;-86
2020/12/17 10:47:42;;;;;;;;;;;;;;;4.11;72.65;99023.07;1704908;82;26806;-86
2020/12/17 10:50:29;;;;;;;;;;;;;;;4.20;72.65;99027.92;1747987;80;24593;-86
2020/12/17 10:53:04;;;;;;;;;;;;;;;4.21;72.66;99022.70;1776614;80;20455;-86
2020/12/17 10:55:55;;;;;;;;;;;;;;;4.20;72.66;99026.63;1731548;81;24872;-86
2020/12/17 10:58:42;;;;;;;;;;;;;;;4.21;72.66;99025.73;1776062;80;22146;-86
2020/12/17 11:01:29;;;;;;;;;;;;;;;4.26;72.65;99022.98;1726461;82;26099;-86
2020/12/17 11:04:17;;;;;;;;;;;;;;;4.31;72.64;99018.03;1771600;80;24711;-85
2020/12/17 11:07:03;;;;;;;;;;;;;;;4.43;72.64;99009.83;1765786;80;20319;-86
2020/12/17 11:09:50;;;;;;;;;;;;;;;4.52;72.66;99008.22;1765455;80;24760;-85
2020/12/17 11:12:36;;;;;;;;;;;;;;;4.56;72.68;99007.20;1764939;80;21473;-85
2020/12/17 11:15:23;;;;;;;;;;;;;;;4.62;72.69;99003.54;1753489;80;26864;-86
2020/12/17 11:18:09;;;;;;;;;;;;;;;4.59;72.68;98997.16;1779073;80;24707;-86
2020/12/17 11:20:56;;;;;;;;;;;;;;;4.51;72.66;98996.16;1767980;80;20318;-86
2020/12/17 11:23:45;;;;;;;;;;;;;;;4.47;72.61;98991.96;1786765;80;24978;-86
2020/12/17 11:26:32;;;;;;;;;;;;;;;4.45;72.55;98992.48;1776315;80;23052;-85
2020/12/17 11:29:19;;;;;;;;;;;;;;;4.46;72.50;98995.93;1775036;80;26181;-85
2020/12/17 11:32:05;;;;;;;;;;;;;;;4.49;72.49;98990.62;1765930;80;24622;-85
2020/12/17 11:34:53;;;;;;;;;;;;;;;4.49;72.44;98982.40;1752763;81;20550;-85
2020/12/17 11:37:40;;;;;;;;;;;;;;;4.49;72.42;98974.63;1738552;80;24873;-85
2020/12/17 11:40:26;;;;;;;;;;;;;;;4.48;72.37;98977.27;1768048;80;22221;-85
2020/12/17 11:43:12;;;;;;;;;;;;;;;4.44;72.34;98973.95;1777281;80;27295;-85
2020/12/17 11:46:00;;;;;;;;;;;;;;;4.47;72.32;98971.71;1712545;82;24487;-86
2020/12/17 11:48:48;;;;;;;;;;;;;;;4.43;72.29;98969.66;1737274;82;20645;-86
2020/12/17 11:51:35;;;;;;;;;;;;;;;4.37;72.23;98967.29;1776267;79;25046;-86
2020/12/17 11:54:21;;;;;;;;;;;;;;;4.34;72.17;98964.83;1729152;82;22268;-86
2020/12/17 11:57:07;;;;;;;;;;;;;;;4.36;72.16;98960.89;1763204;80;26117;-87
2020/12/17 11:59:54;;;;;;;;;;;;;;;4.41;72.12;98965.45;1730797;82;24579;-87
2020/12/17 12:02:46;;;;;;;;;;;;;;;4.43;72.10;98964.92;1757546;80;20267;-86
2020/12/17 12:05:33;;;;;;;;;;;;;;;4.48;72.11;98961.27;1763831;80;25088;-86
2020/12/17 12:08:20;;;;;;;;;;;;;;;4.50;72.11;98958.18;1777480;80;22115;-87
2020/12/17 12:11:07;;;;;;;;;;;;;;;4.50;72.08;98959.48;1774667;80;26141;-86
2020/12/17 12:13:56;;;;;;;;;;;;;;;4.49;72.07;98965.55;1768801;80;24889;-87
2020/12/17 12:16:43;;;;;;;;;;;;;;;4.56;72.06;98963.14;1753821;80;20271;-87
2020/12/17 12:19:31;;;;;;;;;;;;;;;4.57;72.02;98958.36;1722932;82;24789;-86
2020/12/17 12:22:19;;;;;;;;;;;;;;;4.58;72.03;98952.24;1720332;82;22945;-87
2020/12/17 12:25:05;;;;;;;;;;;;;;;4.55;71.99;98952.38;1745551;80;26386;-86
2020/12/17 12:27:51;;;;;;;;;;;;;;;4.50;71.94;98956.88;1768574;80;25611;-86
2020/12/17 12:30:37;;;;;;;;;;;;;;;4.47;71.88;98956.98;1741603;82;20358;-87
2020/12/17 12:33:24;;;;;;;;;;;;;;;4.45;71.84;98951.03;1777340;80;25661;-87
2020/12/17 12:36:15;;;;;;;;;;;;;;;4.46;71.81;98949.28;1767153;80;22299;-86
2020/12/17 12:39:04;;;;;;;;;;;;;;;4.51;71.78;98944.33;1730216;82;26132;-87
2020/12/17 12:41:53;;;;;;;;;;;;;;;4.49;71.77;98946.12;1781435;80;24577;-86
2020/12/17 12:44:40;;;;;;;;;;;;;;;4.49;71.72;98940.94;1732077;82;20176;-86
2020/12/17 12:47:33;;;;;;;;;;;;;;;4.51;71.71;98938.30;1730184;82;24287;-86
2020/12/17 12:50:34;;;;;;;;;;;;;;;4.51;71.70;98942.19;1723355;82;23201;-86
2020/12/17 12:53:21;;;;;;;;;;;;;;;4.50;71.65;98943.08;1721387;82;26135;-86
2020/12/17 12:56:10;;;;;;;;;;;;;;;4.51;71.63;98939.59;1732425;81;24586;-86
2020/12/17 12:58:59;;;;;;;;;;;;;;;4.51;71.61;98937.84;1725596;82;20554;-86
2020/12/17 13:01:48;;;;;;;;;;;;;;;4.55;71.59;98938.12;1730372;82;20295;-86
2020/12/17 13:04:34;;;;;;;;;;;;;;;4.63;71.59;98937.39;1737691;82;22058;-86
2020/12/17 13:07:20;;;;;;;;;;;;;;;4.68;71.59;98933.77;1707877;82;26022;-86
2020/12/17 13:10:08;;;;;;;;;;;;;;;4.66;71.58;98929.09;1727266;82;24600;-86
2020/12/17 13:12:55;;;;;;;;;;;;;;;4.65;71.56;98934.72;1716355;82;20548;-86
2020/12/17 13:15:42;;;;;;;;;;;;;;;4.68;71.53;98934.63;1724449;82;24869;-87
2020/12/17 13:18:29;;;;;;;;;;;;;;;4.76;71.52;98931.72;1726632;82;22314;-87
2020/12/17 13:21:16;;;;;;;;;;;;;;;4.83;71.53;98931.43;1721155;82;26295;-87
2020/12/17 13:24:06;;;;;;;;;;;;;;;4.86;71.53;98929.16;1728963;82;25476;-86
2020/12/17 13:26:54;;;;;;;;;;;;;;;4.86;71.53;98923.97;1729584;82;20318;-87
2020/12/17 13:29:41;;;;;;;;;;;;;;;4.83;71.51;98926.70;1735461;82;25986;-87
2020/12/17 13:32:28;;;;;;;;;;;;;;;4.82;71.48;98922.41;1727531;82;22148;-87
2020/12/17 13:35:14;;;;;;;;;;;;;;;4.79;71.45;98937.65;1711063;83;26908;-88
2020/12/17 13:38:00;;;;;;;;;;;;;;;4.78;71.41;98932.06;1735052;82;24635;-87
2020/12/17 13:40:47;;;;;;;;;;;;;;;4.80;71.39;98932.83;1702918;82;20504;-88
2020/12/17 13:43:33;;;;;;;;;;;;;;;4.83;71.37;98932.73;1731498;82;24920;-88
2020/12/17 13:46:21;;;;;;;;;;;;;;;4.81;71.38;98940.16;1721419;82;22145;-88
2020/12/17 13:49:08;;;;;;;;;;;;;;;4.80;71.34;98928.13;1736760;82;25756;-86
2020/12/17 13:51:55;;;;;;;;;;;;;;;4.80;71.32;98935.91;1742314;81;24783;-87
2020/12/17 13:54:42;;;;;;;;;;;;;;;4.81;71.29;98930.63;1721384;82;20542;-87
2020/12/17 13:57:29;;;;;;;;;;;;;;;4.83;71.30;98931.88;1730370;82;25140;-87
2020/12/17 14:00:16;;;;;;;;;;;;;;;4.87;71.27;98929.55;1717311;82;22213;-86
2020/12/17 14:03:04;;;;;;;;;;;;;;;4.90;71.27;98926.86;1733779;81;27222;-86
2020/12/17 14:05:50;;;;;;;;;;;;;;;4.90;71.25;98932.89;1702362;83;24179;-87
2020/12/17 14:08:37;;;;;;;;;;;;;;;4.92;71.25;98934.11;1716109;82;20478;-87
2020/12/17 14:11:23;;;;;;;;;;;;;;;4.95;71.26;98936.59;1731897;82;24912;-87
2020/12/17 14:14:10;;;;;;;;;;;;;;;4.94;71.26;98937.50;1726154;82;22256;-87
2020/12/17 14:16:56;;;;;;;;;;;;;;;4.97;71.23;98934.77;1723262;82;26189;-87
2020/12/17 14:19:43;;;;;;;;;;;;;;;5.03;71.23;98939.27;1729683;82;24596;-86
2020/12/17 14:22:30;;;;;;;;;;;;;;;5.13;71.24;98941.52;1725246;82;20280;-86
2020/12/17 14:25:23;;;;;;;;;;;;;;;5.21;71.24;98949.37;1706700;82;26107;-86
2020/12/17 14:28:10;;;;;;;;;;;;;;;5.25;71.25;98950.94;1729319;82;22232;-86
2020/12/17 14:30:57;;;;;;;;;;;;;;;5.27;71.26;98953.02;1743187;81;26996;-87
2020/12/17 14:33:44;;;;;;;;;;;;;;;5.24;71.24;98960.06;1739336;81;24784;-87
2020/12/17 14:36:31;;;;;;;;;;;;;;;5.25;71.24;98953.98;1726200;82;20363;-87
2020/12/17 14:39:20;;;;;;;;;;;;;;;5.23;71.22;98961.84;1726566;82;25684;-87
2020/12/17 14:42:07;;;;;;;;;;;;;;;5.22;71.18;98960.16;1726940;82;22064;-87